Time;durP1;ratioP1;P1;durP2;ratioP2;P2;SDS_P1;SDS_P2;PMS_P1;PMS_P2;Temp;Humidity;BMP_temperature;BMP_pressure;BME280_temperature;BME280_humidity;BME280_pressure;Samples;Min_cycle;Max_cycle;Signal;HPM_P1;HPM_P2
2021/07/22 06:22:38;;;;;;;11.67;10.47;;;;;;;23.25;62.54;99498.58;125190;1093;64280;-76
2021/07/22 06:25:07;;;;;;;12.17;10.90;;;;;;;23.22;62.24;99488.89;124940;1093;64216;-76
2021/07/22 06:27:36;;;;;;;12.37;10.37;;;;;;;23.16;61.98;99494.99;124932;1092;64266;-76
2021/07/22 06:30:04;;;;;;;11.20;10.10;;;;;;;23.18;62.40;99492.11;124982;1093;64245;-76
2021/07/22 06:32:31;;;;;;;12.97;11.40;;;;;;;23.27;62.36;99492.95;124883;1093;64437;-76
2021/07/22 06:34:58;;;;;;;13.63;10.63;;;;;;;23.37;62.07;99494.45;124924;1093;64303;-76
2021/07/22 06:37:25;;;;;;;13.67;10.43;;;;;;;23.43;61.89;99491.06;124896;1093;64293;-76
2021/07/22 06:39:52;;;;;;;13.77;10.20;;;;;;;23.48;61.64;99503.28;124894;1093;64210;-76
2021/07/22 06:42:21;;;;;;;14.57;11.47;;;;;;;23.55;61.52;99490.69;124900;1093;64288;-75
2021/07/22 06:44:48;;;;;;;11.57;9.57;;;;;;;23.59;61.15;99492.89;124879;1092;64376;-76
2021/07/22 06:47:15;;;;;;;11.50;9.97;;;;;;;23.64;60.17;99492.34;124932;1093;64427;-76
2021/07/22 06:49:42;;;;;;;16.93;12.23;;;;;;;23.60;59.53;99491.02;124851;1093;64303;-76
2021/07/22 06:52:10;;;;;;;13.70;11.80;;;;;;;23.61;60.42;99490.82;124924;1093;64274;-76
2021/07/22 06:54:37;;;;;;;11.20;10.10;;;;;;;23.71;59.95;99492.52;124923;1093;64216;-75
2021/07/22 06:57:05;;;;;;;13.00;11.03;;;;;;;23.75;60.16;99488.43;125025;1093;64290;-76
2021/07/22 06:59:32;;;;;;;12.27;10.10;;;;;;;23.81;59.95;99490.47;124908;1093;64444;-76
2021/07/22 07:01:59;;;;;;;12.83;11.53;;;;;;;23.90;59.86;99481.23;124881;1093;64271;-76
2021/07/22 07:04:26;;;;;;;12.07;10.83;;;;;;;23.93;59.34;99485.48;125013;1093;64185;-76
2021/07/22 07:06:53;;;;;;;12.47;11.27;;;;;;;23.98;59.73;99496.69;124996;1093;64326;-75
2021/07/22 07:09:20;;;;;;;12.20;10.93;;;;;;;24.16;59.67;99486.39;124973;1093;64191;-76
2021/07/22 07:11:47;;;;;;;13.10;10.30;;;;;;;24.29;58.68;99486.66;124904;1093;64395;-76
2021/07/22 07:14:15;;;;;;;11.97;10.87;;;;;;;24.35;58.93;99487.81;124868;1093;64194;-76
2021/07/22 07:16:42;;;;;;;13.70;10.73;;;;;;;24.46;58.55;99484.73;124956;1093;64248;-76
2021/07/22 07:19:09;;;;;;;12.30;10.57;;;;;;;24.65;58.57;99483.40;124878;1093;64287;-76
2021/07/22 07:21:40;;;;;;;13.37;10.80;;;;;;;25.01;58.19;99474.58;124975;1093;64296;-76
2021/07/22 07:24:07;;;;;;;11.87;10.60;;;;;;;25.27;57.36;99478.81;125015;1093;64224;-76
2021/07/22 07:26:34;;;;;;;14.85;10.95;;;;;;;25.17;57.31;99481.79;125018;1093;64265;-76
2021/07/22 07:29:02;;;;;;;11.83;10.70;;;;;;;25.20;57.57;99473.27;124897;1093;64296;-76
2021/07/22 07:31:30;;;;;;;12.30;11.00;;;;;;;25.13;57.30;99475.84;124994;1093;64293;-76
2021/07/22 07:33:57;;;;;;;15.67;10.37;;;;;;;25.07;56.18;99473.86;124941;1093;64230;-77
2021/07/22 07:36:25;;;;;;;20.40;13.00;;;;;;;24.95;55.75;99481.61;125090;1093;64192;-77
2021/07/22 07:38:52;;;;;;;13.00;10.20;;;;;;;24.75;56.45;99474.98;124939;1093;64268;-77
2021/07/22 07:41:19;;;;;;;14.60;9.77;;;;;;;24.67;56.66;99475.02;124906;1093;64196;-77
2021/07/22 07:43:46;;;;;;;11.93;10.63;;;;;;;24.60;57.06;99468.63;124905;1093;64268;-77
2021/07/22 07:46:13;;;;;;;14.03;11.40;;;;;;;24.67;57.12;99466.84;125016;1093;64420;-76
2021/07/22 07:48:40;;;;;;;12.15;10.75;;;;;;;24.71;57.61;99468.19;124893;1093;64287;-77
2021/07/22 07:51:08;;;;;;;11.13;10.03;;;;;;;24.77;57.22;99466.61;124981;1093;64270;-76
2021/07/22 07:53:36;;;;;;;14.00;9.03;;;;;;;24.71;55.57;99462.74;124876;1093;64198;-74
2021/07/22 07:56:03;;;;;;;13.73;9.93;;;;;;;24.48;56.29;99469.02;124953;1093;64239;-73
2021/07/22 07:58:30;;;;;;;10.60;9.37;;;;;;;24.56;56.52;99470.00;124949;1092;64343;-72
2021/07/22 08:00:58;;;;;;;10.93;8.47;;;;;;;24.69;56.69;99454.73;124928;1093;64194;-73
2021/07/22 08:03:25;;;;;;;10.17;9.17;;;;;;;24.87;56.66;99459.88;124891;1093;64303;-73
2021/07/22 08:05:52;;;;;;;12.03;9.00;;;;;;;24.96;56.49;99463.37;124885;1093;64290;-73
2021/07/22 08:08:19;;;;;;;10.37;8.27;;;;;;;25.01;55.60;99454.64;124908;1093;64271;-73
2021/07/22 08:10:46;;;;;;;10.27;8.70;;;;;;;25.08;55.40;99458.34;124886;1093;64428;-73
2021/07/22 08:13:14;;;;;;;10.63;8.93;;;;;;;25.26;55.26;99456.14;125032;1093;64319;-73
2021/07/22 08:15:42;;;;;;;10.67;8.07;;;;;;;25.35;53.43;99454.16;124928;1093;64277;-73
2021/07/22 08:18:11;;;;;;;10.23;8.53;;;;;;;25.18;52.77;99456.23;124993;1093;64300;-73
2021/07/22 08:20:38;;;;;;;9.65;8.30;;;;;;;25.16;53.36;99455.56;125046;1093;64268;-73
2021/07/22 08:23:05;;;;;;;8.83;7.90;;;;;;;25.25;53.71;99459.91;124886;1093;64274;-73
2021/07/22 08:25:32;;;;;;;8.53;7.60;;;;;;;25.12;51.99;99454.19;124963;1092;64223;-73
2021/07/22 08:28:00;;;;;;;7.70;6.90;;;;;;;24.91;52.30;99452.20;124930;1093;64286;-73
2021/07/22 08:30:27;;;;;;;72.13;18.17;;;;;;;24.83;52.77;99452.23;124922;1093;64364;-73
2021/07/22 08:32:54;;;;;;;35.53;10.53;;;;;;;24.92;52.95;99453.88;125029;1092;64236;-75
2021/07/22 08:35:21;;;;;;;8.63;7.30;;;;;;;25.06;51.31;99452.21;125012;1093;64316;-77
2021/07/22 08:37:49;;;;;;;8.33;6.90;;;;;;;25.02;50.71;99459.09;124961;1093;64344;-76
2021/07/22 08:40:16;;;;;;;7.20;6.50;;;;;;;24.95;50.01;99462.53;124900;1093;64373;-76
2021/07/22 08:42:46;;;;;;;7.40;6.67;;;;;;;25.03;50.81;99449.86;125079;1093;64222;-76
2021/07/22 08:45:16;;;;;;;10.87;7.60;;;;;;;25.43;50.89;99445.05;124963;1092;64216;-76
2021/07/22 08:47:44;;;;;;;7.83;7.03;;;;;;;25.87;50.56;99446.95;124910;1093;64195;-76
2021/07/22 08:50:13;;;;;;;9.23;7.37;;;;;;;26.04;50.41;99442.94;125030;1093;64438;-78
2021/07/22 08:52:42;;;;;;;9.40;7.50;;;;;;;25.99;49.53;99448.16;124990;1092;64229;-75
2021/07/22 08:55:10;;;;;;;11.30;9.20;;;;;;;25.65;48.37;99446.84;124945;1093;64377;-76
2021/07/22 08:57:38;;;;;;;7.90;7.10;;;;;;;25.36;48.18;99443.08;124960;1092;64245;-76
2021/07/22 09:00:07;;;;;;;6.83;6.23;;;;;;;25.29;48.11;99439.39;124910;1093;64248;-77
2021/07/22 09:02:36;;;;;;;7.18;6.58;;;;;;;25.24;48.78;99438.27;125066;1093;64185;-76
2021/07/22 09:05:05;;;;;;;8.47;6.77;;;;;;;25.28;48.41;99429.52;124937;1093;64271;-76
2021/07/22 09:07:32;;;;;;;8.20;6.53;;;;;;;25.26;48.50;99441.66;125022;1093;64329;-76
2021/07/22 09:10:24;;;;;;;8.10;7.20;;;;;;;25.23;48.66;99436.58;124920;1093;64323;-76
2021/07/22 09:12:53;;;;;;;9.30;7.60;;;;;;;25.45;48.85;99432.91;125030;1093;64287;-75
2021/07/22 09:15:32;;;;;;;8.53;7.37;;;;;;;25.63;48.84;99435.27;124891;1093;64335;-77
2021/07/22 09:18:22;;;;;;;9.17;7.27;;;;;;;25.50;46.98;99435.92;124964;1093;64293;-75
2021/07/22 09:20:50;;;;;;;8.77;7.93;;;;;;;25.56;47.79;99440.62;125101;1092;64361;-75
2021/07/22 09:23:19;;;;;;;7.77;7.03;;;;;;;25.88;48.04;99438.55;124927;1093;64312;-76
2021/07/22 09:25:49;;;;;;;20.48;10.63;;;;;;;26.24;47.94;99437.73;124944;1093;64230;-76
2021/07/22 09:28:19;;;;;;;9.43;7.53;;;;;;;26.37;47.39;99437.03;125068;1093;64216;-76
2021/07/22 09:31:00;;;;;;;10.30;7.37;;;;;;;26.58;48.02;99436.22;124893;1093;64274;-76
2021/07/22 09:33:39;;;;;;;9.97;8.10;;;;;;;26.68;47.03;99437.59;124918;1093;64194;-76
2021/07/22 09:36:08;;;;;;;8.80;7.95;;;;;;;26.59;46.25;99432.44;124988;1093;64266;-76
2021/07/22 09:51:06;;;;;;;7.97;7.27;;;;;;;26.65;45.65;99418.00;125051;1093;64280;-77
2021/07/22 09:53:34;;;;;;;7.67;6.80;;;;;;;26.63;45.13;99434.59;125038;1092;64271;-77
2021/07/22 09:56:01;;;;;;;7.90;7.20;;;;;;;26.36;45.68;99425.25;125022;1092;64343;-76
2021/07/22 09:58:30;;;;;;;9.70;7.17;;;;;;;26.13;46.15;99417.22;125014;1093;64319;-76
2021/07/22 10:01:00;;;;;;;7.50;6.73;;;;;;;25.93;46.27;99424.33;125105;1093;64268;-76
2021/07/22 10:03:29;;;;;;;8.00;6.93;;;;;;;25.76;46.65;99424.52;125002;1093;64274;-76
2021/07/22 10:06:06;;;;;;;9.37;6.70;;;;;;;25.71;47.77;99426.97;125093;1093;64276;-76
2021/07/22 10:08:35;;;;;;;9.37;7.33;;;;;;;25.56;47.35;99426.97;125000;1093;64195;-77
2021/07/22 10:11:05;;;;;;;7.07;6.37;;;;;;;25.32;46.48;99432.72;125048;1092;64297;-76
2021/07/22 10:13:39;;;;;;;8.40;6.77;;;;;;;25.07;46.99;99426.66;125050;1093;64288;-76
2021/07/22 10:16:12;;;;;;;12.57;11.47;;;;;;;24.93;47.18;99425.56;125079;1093;64268;-76
2021/07/22 10:18:47;;;;;;;7.63;6.27;;;;;;;24.80;47.41;99426.19;125047;1092;64380;-76
2021/07/22 10:21:15;;;;;;;7.60;6.40;;;;;;;24.79;47.42;99420.94;124928;1093;64354;-76
2021/07/22 10:23:43;;;;;;;7.77;6.57;;;;;;;24.84;47.62;99423.96;125080;1091;64348;-76
2021/07/22 10:26:11;;;;;;;10.55;6.65;;;;;;;24.77;47.51;99420.27;125019;1092;64287;-76
2021/07/22 10:28:39;;;;;;;7.53;6.83;;;;;;;24.74;47.91;99421.48;125038;1093;64284;-76
2021/07/22 10:31:07;;;;;;;7.30;6.60;;;;;;;24.80;48.21;99426.19;125068;1092;64227;-76
2021/07/22 10:33:38;;;;;;;7.33;6.63;;;;;;;24.85;47.54;99431.94;125034;1093;64297;-76
2021/07/22 10:36:06;;;;;;;7.33;6.63;;;;;;;24.84;47.81;99421.23;125057;1093;64351;-76
2021/07/22 10:38:46;;;;;;;7.17;6.47;;;;;;;24.97;47.65;99426.91;125095;1093;64287;-76
2021/07/22 10:41:40;;;;;;;9.93;7.07;;;;;;;25.11;48.03;99430.69;125086;1092;64188;-76
2021/07/22 10:44:19;;;;;;;8.40;7.53;;;;;;;25.12;46.34;99424.19;125073;1093;64306;-76
2021/07/22 10:47:00;;;;;;;11.17;6.50;;;;;;;25.13;47.25;99421.28;125015;1093;64348;-76
2021/07/22 10:49:43;;;;;;;11.37;7.10;;;;;;;25.28;47.02;99415.05;125124;1093;64583;-76
2021/07/22 10:52:12;;;;;;;8.43;7.10;;;;;;;25.44;47.18;99419.47;125056;1093;64156;-76
2021/07/22 10:54:44;;;;;;;;;;;;;;;25.44;46.46;99416.74;125164;1093;64692;-77
2021/07/22 10:57:36;;;;;;;7.67;6.77;;;;;;;25.53;46.05;99412.86;125047;1093;64268;-76
2021/07/22 11:00:07;;;;;;;9.60;6.97;;;;;;;25.55;45.98;99411.64;125102;1093;64329;-77
2021/07/22 11:02:47;;;;;;;8.07;6.60;;;;;;;25.55;44.97;99406.19;125089;1093;64338;-76
2021/07/22 11:05:24;;;;;;;9.83;6.70;;;;;;;25.58;45.72;99407.69;125034;1093;64756;-76
2021/07/22 11:08:17;;;;;;;6.83;6.17;;;;;;;25.60;45.78;99403.73;125047;1093;64276;-76
2021/07/22 11:10:58;;;;;;;7.40;6.63;;;;;;;25.74;45.56;99399.28;125057;1092;64267;-76
2021/07/22 11:13:37;;;;;;;7.75;6.90;;;;;;;25.70;44.57;99400.72;125027;1093;64336;-76
2021/07/22 11:16:07;;;;;;;9.00;6.13;;;;;;;25.60;44.82;99401.00;125015;1093;64281;-76
2021/07/22 11:18:43;;;;;;;7.15;6.33;;;;;;;25.68;44.89;99400.05;124873;1093;64220;-76
2021/07/22 11:21:26;;;;;;;6.43;5.83;;;;;;;25.95;45.06;99400.41;125044;1093;64241;-76
2021/07/22 11:23:57;;;;;;;7.47;6.77;;;;;;;26.17;44.04;99401.28;125126;1092;64306;-76
2021/07/22 11:26:28;;;;;;;7.13;6.33;;;;;;;26.10;43.38;99394.92;125049;1093;64484;-76
2021/07/22 11:28:55;;;;;;;8.50;6.37;;;;;;;26.18;44.19;99401.09;124954;1093;64357;-76
2021/07/22 11:31:22;;;;;;;6.47;5.83;;;;;;;26.44;43.84;99394.22;125005;1093;64194;-77
2021/07/22 11:33:49;;;;;;;7.50;6.30;;;;;;;26.59;44.25;99392.27;124939;1093;64364;-76
2021/07/22 11:36:22;;;;;;;6.80;6.00;;;;;;;26.84;43.51;99392.70;125038;1093;64177;-79
2021/07/22 11:38:54;;;;;;;6.73;6.03;;;;;;;26.87;43.01;99389.56;125092;1093;64309;-76
2021/07/22 11:41:22;;;;;;;7.57;6.87;;;;;;;26.81;42.61;99392.27;125067;1093;64364;-76
2021/07/22 11:43:56;;;;;;;7.77;7.03;;;;;;;26.89;43.05;99387.48;125021;1092;64763;-76
2021/07/22 11:46:44;;;;;;;7.00;6.30;;;;;;;26.99;42.59;99387.15;125008;1092;64284;-76
2021/07/22 11:49:16;;;;;;;7.00;6.37;;;;;;;27.13;42.35;99375.23;124996;1093;64187;-76
2021/07/22 11:51:48;;;;;;;6.50;5.90;;;;;;;27.09;41.93;99376.70;125048;1092;64268;-76
2021/07/22 11:54:18;;;;;;;6.17;5.57;;;;;;;26.95;42.17;99380.38;125027;1093;64402;-76
2021/07/22 11:56:48;;;;;;;6.60;5.60;;;;;;;26.95;41.22;99374.06;125012;1092;64223;-78
2021/07/22 11:59:16;;;;;;;6.70;5.17;;;;;;;26.88;41.63;99368.53;125074;1093;64273;-77
2021/07/22 12:01:48;;;;;;;6.47;5.97;;;;;;;27.09;41.88;99370.36;125079;1092;64759;-77
2021/07/22 12:04:34;;;;;;;5.87;5.33;;;;;;;27.36;40.96;99372.26;125076;1093;64266;-77
2021/07/22 12:07:05;;;;;;;7.60;5.40;;;;;;;27.36;40.75;99366.78;125136;1093;64293;-76
2021/07/22 12:09:33;;;;;;;7.00;5.73;;;;;;;27.02;39.94;99366.76;125067;1093;64271;-77
2021/07/22 12:12:02;;;;;;;6.57;5.93;;;;;;;26.74;40.82;99367.59;125083;1093;64395;-77
2021/07/22 12:14:38;;;;;;;6.10;5.60;;;;;;;26.53;41.26;99368.46;125065;1093;64264;-76
2021/07/22 12:17:07;;;;;;;5.33;4.83;;;;;;;26.44;42.08;99366.89;124965;1093;64358;-77
2021/07/22 12:19:39;;;;;;;6.77;5.63;;;;;;;26.35;41.59;99365.31;125084;1093;64309;-75
2021/07/22 12:22:25;;;;;;;7.30;5.53;;;;;;;26.26;41.88;99367.34;125091;1092;64284;-76
2021/07/22 12:24:54;;;;;;;7.40;5.60;;;;;;;25.99;42.29;99371.69;125137;1093;64383;-76
2021/07/22 12:27:32;;;;;;;7.93;6.03;;;;;;;25.79;42.57;99371.41;125026;1093;64214;-76
2021/07/22 12:30:01;;;;;;;7.80;5.23;;;;;;;25.61;42.68;99372.66;125024;1093;64387;-76
2021/07/22 12:32:29;;;;;;;5.70;5.20;;;;;;;25.34;42.92;99368.74;125037;1093;64271;-76
2021/07/22 12:34:58;;;;;;;6.45;5.65;;;;;;;25.06;43.46;99364.94;124847;1093;64255;-77
2021/07/22 12:38:13;;;;;;;6.83;5.33;;;;;;;24.84;44.03;99370.28;125021;1092;64241;-76
2021/07/22 12:40:46;;;;;;;6.65;5.55;;;;;;;24.84;44.65;99373.00;124901;1093;64260;-76
2021/07/22 12:43:16;;;;;;;5.93;5.37;;;;;;;24.81;44.84;99367.09;125003;1093;64380;-76
2021/07/22 12:45:45;;;;;;;8.60;5.90;;;;;;;24.75;44.79;99364.07;124912;1093;64367;-77
2021/07/22 12:48:13;;;;;;;6.57;5.97;;;;;;;24.54;45.30;99369.38;125060;1093;64297;-77
2021/07/22 12:50:46;;;;;;;6.87;6.17;;;;;;;24.43;45.96;99376.05;124932;1093;64287;-77
2021/07/22 12:53:30;;;;;;;8.10;6.87;;;;;;;24.30;46.64;99368.52;125039;1093;64746;-77
2021/07/22 12:55:59;;;;;;;7.80;7.03;;;;;;;24.14;47.54;99370.49;125006;1093;64191;-77
2021/07/22 12:58:26;;;;;;;9.47;7.80;;;;;;;23.99;47.98;99367.72;125072;1093;64184;-77
2021/07/22 13:01:17;;;;;;;8.30;7.33;;;;;;;23.85;48.26;99372.88;125018;1092;64268;-77
2021/07/22 13:03:46;;;;;;;9.23;8.37;;;;;;;23.68;48.92;99365.80;125042;1092;64303;-77
2021/07/22 13:06:16;;;;;;;11.00;7.33;;;;;;;23.60;49.21;99365.85;125054;1093;64241;-77
2021/07/22 13:08:44;;;;;;;9.83;7.57;;;;;;;23.57;49.39;99360.77;125053;1093;64276;-77
2021/07/22 13:11:13;;;;;;;11.50;7.50;;;;;;;23.57;49.72;99369.77;124979;1093;64658;-76
2021/07/22 13:13:43;;;;;;;8.55;7.58;;;;;;;23.58;49.74;99359.73;125077;1092;64294;-76
2021/07/22 13:16:11;;;;;;;10.85;7.30;;;;;;;23.53;49.91;99365.70;124867;1093;64326;-76
2021/07/22 13:18:38;;;;;;;10.80;6.30;;;;;;;23.58;50.56;99360.58;125070;1093;64242;-76
2021/07/22 13:21:08;;;;;;;7.50;6.80;;;;;;;23.59;50.25;99359.57;125061;1092;64165;-75
2021/07/22 13:23:37;;;;;;;;;;;;;;;23.65;50.50;99356.13;125121;1093;64693;-76
2021/07/22 13:26:06;;;;;;;9.70;7.43;;;;;;;23.70;50.27;99352.00;125186;1093;64287;-76
2021/07/22 13:28:34;;;;;;;9.83;6.73;;;;;;;23.73;50.30;99351.70;125088;1093;64287;-77
2021/07/22 13:31:01;;;;;;;10.03;7.53;;;;;;;23.75;50.67;99355.95;125048;1093;64188;-77
2021/07/22 13:33:29;;;;;;;10.90;7.17;;;;;;;23.82;50.98;99347.89;125024;1092;64324;-76
2021/07/22 13:35:56;;;;;;;10.00;7.20;;;;;;;23.87;50.73;99345.48;125015;1093;64240;-75
2021/07/22 13:38:32;;;;;;;9.97;6.97;;;;;;;23.93;50.72;99343.91;125088;1093;64281;-76
2021/07/22 13:41:01;;;;;;;8.50;7.17;;;;;;;23.97;50.51;99342.54;125082;1093;64242;-76
2021/07/22 13:43:29;;;;;;;7.70;6.55;;;;;;;24.01;50.48;99335.69;124923;1093;64351;-75
2021/07/22 13:45:56;;;;;;;7.97;6.83;;;;;;;24.08;50.70;99329.34;125026;1093;64434;-76
2021/07/22 13:48:24;;;;;;;10.07;7.53;;;;;;;24.15;50.59;99326.75;125005;1093;64216;-77
2021/07/22 13:50:51;;;;;;;9.57;7.37;;;;;;;24.18;50.54;99329.10;124941;1092;64731;-76
2021/07/22 13:53:18;;;;;;;7.47;6.73;;;;;;;24.25;50.58;99331.93;125050;1092;64210;-76
2021/07/22 13:55:46;;;;;;;9.57;7.10;;;;;;;24.28;50.80;99335.16;125027;1092;64351;-77
2021/07/22 13:58:14;;;;;;;8.07;7.17;;;;;;;24.29;50.20;99325.09;125057;1093;64293;-76
2021/07/22 14:00:41;;;;;;;9.43;7.00;;;;;;;24.29;50.47;99328.66;125073;1093;64402;-76
2021/07/22 14:03:08;;;;;;;9.87;7.00;;;;;;;24.32;49.88;99327.45;124985;1093;64268;-76
2021/07/22 14:05:36;;;;;;;8.10;7.20;;;;;;;24.27;49.79;99318.98;124901;1093;64207;-76
2021/07/22 14:08:03;;;;;;;8.27;6.80;;;;;;;24.24;49.72;99324.80;125064;1093;64220;-77
2021/07/22 14:10:31;;;;;;;11.47;7.23;;;;;;;24.23;49.80;99317.67;125090;1093;64238;-76
2021/07/22 14:12:58;;;;;;;9.13;6.87;;;;;;;24.23;49.76;99314.95;125118;1093;64287;-76
2021/07/22 14:15:26;;;;;;;7.93;6.93;;;;;;;24.19;49.45;99319.05;125000;1093;64213;-76
2021/07/22 14:17:53;;;;;;;9.47;6.80;;;;;;;24.12;50.02;99313.50;125051;1093;64310;-76
2021/07/22 14:20:20;;;;;;;7.20;6.17;;;;;;;24.15;50.02;99315.02;125090;1093;64232;-77
2021/07/22 14:22:48;;;;;;;7.30;5.83;;;;;;;24.21;50.27;99312.39;125114;1093;64216;-77
2021/07/22 14:25:15;;;;;;;7.80;6.13;;;;;;;24.27;50.23;99308.09;125061;1093;64265;-76
2021/07/22 14:27:42;;;;;;;8.20;6.47;;;;;;;24.29;49.61;99306.88;125026;1093;64284;-76
2021/07/22 14:30:10;;;;;;;10.57;6.43;;;;;;;24.23;49.23;99296.72;125065;1093;64379;-77
2021/07/22 14:32:39;;;;;;;8.30;6.30;;;;;;;24.21;49.24;99298.77;125084;1093;64195;-76
2021/07/22 14:35:08;;;;;;;6.67;6.03;;;;;;;24.17;49.08;99294.74;124944;1093;64401;-76
2021/07/22 14:37:36;;;;;;;7.40;6.57;;;;;;;24.15;49.02;99294.07;125132;1093;64264;-76
2021/07/22 14:40:05;;;;;;;8.10;6.13;;;;;;;24.11;49.30;99292.73;125111;1092;64268;-76
2021/07/22 14:42:33;;;;;;;10.73;7.50;;;;;;;24.04;49.69;99295.35;125110;1093;64265;-76
2021/07/22 14:45:01;;;;;;;7.63;6.10;;;;;;;23.93;49.99;99289.47;125039;1092;64383;-76
2021/07/22 14:47:28;;;;;;;9.57;7.40;;;;;;;23.88;50.22;99290.88;125024;1092;64141;-76
2021/07/22 14:49:55;;;;;;;8.63;6.27;;;;;;;23.85;50.60;99285.77;124930;1093;64335;-76
2021/07/22 14:52:23;;;;;;;8.50;6.30;;;;;;;23.80;50.24;99285.49;125013;1093;64245;-76
2021/07/22 14:54:50;;;;;;;9.47;6.30;;;;;;;23.75;50.32;99285.19;125052;1093;64309;-76
2021/07/22 14:57:18;;;;;;;7.90;6.30;;;;;;;23.73;50.55;99283.67;124970;1093;64284;-76
2021/07/22 14:59:45;;;;;;;9.37;6.10;;;;;;;23.78;50.07;99289.42;124850;1093;64290;-76
2021/07/22 15:02:12;;;;;;;8.93;6.53;;;;;;;23.85;50.02;99285.77;125014;1093;64313;-76
2021/07/22 15:04:39;;;;;;;6.40;5.83;;;;;;;23.92;49.58;99283.18;124903;1093;64178;-77
2021/07/22 15:07:06;;;;;;;11.03;6.60;;;;;;;23.96;49.92;99275.48;125037;1093;64268;-76
2021/07/22 15:09:34;;;;;;;8.07;5.47;;;;;;;24.01;50.26;99273.94;125085;1093;64234;-76
2021/07/22 15:12:01;;;;;;;7.93;5.63;;;;;;;24.13;49.82;99279.78;124988;1093;64332;-76
2021/07/22 15:14:28;;;;;;;9.67;5.40;;;;;;;24.16;49.92;99275.84;125015;1093;64293;-75
2021/07/22 15:16:57;;;;;;;7.20;5.60;;;;;;;24.18;49.52;99277.36;125050;1093;64262;-76
2021/07/22 15:19:24;;;;;;;6.20;5.60;;;;;;;24.15;49.18;99280.45;125057;1093;64214;-76
2021/07/22 15:21:52;;;;;;;7.53;5.30;;;;;;;24.13;49.19;99274.34;125033;1093;64149;-76
2021/07/22 15:24:21;;;;;;;6.57;5.77;;;;;;;24.16;49.18;99267.67;124954;1093;64428;-76
2021/07/22 15:26:49;;;;;;;6.97;6.07;;;;;;;24.16;49.15;99263.08;125092;1093;64388;-76
2021/07/22 15:29:16;;;;;;;8.93;6.53;;;;;;;24.20;49.48;99266.30;125091;1093;64287;-76
2021/07/22 15:31:45;;;;;;;10.43;7.40;;;;;;;24.26;49.69;99260.10;125075;1093;64273;-76
2021/07/22 15:34:13;;;;;;;13.67;7.20;;;;;;;24.37;49.57;99264.25;125094;1092;64262;-76
2021/07/22 15:36:40;;;;;;;9.07;6.47;;;;;;;24.33;49.67;99250.17;125072;1093;64427;-76
2021/07/22 15:39:08;;;;;;;10.57;7.53;;;;;;;24.34;49.70;99260.02;125053;1093;64284;-76
2021/07/22 15:41:35;;;;;;;8.63;6.67;;;;;;;24.38;49.90;99264.08;124989;1093;64319;-76
2021/07/22 15:44:02;;;;;;;9.50;6.93;;;;;;;24.41;49.50;99255.53;125039;1093;64188;-75
2021/07/22 15:46:30;;;;;;;9.83;6.70;;;;;;;24.38;49.33;99255.91;124992;1092;64268;-75
2021/07/22 15:48:58;;;;;;;10.13;7.30;;;;;;;24.32;49.56;99256.63;125028;1093;64233;-77
2021/07/22 15:51:26;;;;;;;9.93;7.30;;;;;;;24.21;49.45;99257.92;125127;1093;64169;-76
2021/07/22 15:53:53;;;;;;;7.73;7.03;;;;;;;24.04;49.43;99250.91;125017;1093;64233;-76
2021/07/22 15:56:21;;;;;;;12.47;8.30;;;;;;;23.87;50.14;99252.94;125040;1093;64309;-75
2021/07/22 15:58:49;;;;;;;11.70;7.73;;;;;;;23.74;50.28;99247.25;125063;1093;64272;-76
2021/07/22 16:01:16;;;;;;;10.37;6.97;;;;;;;23.70;50.32;99245.88;125021;1093;64430;-77
2021/07/22 16:03:43;;;;;;;10.10;6.90;;;;;;;23.71;51.13;99244.86;125023;1093;64356;-77
2021/07/22 16:06:13;;;;;;;12.00;7.07;;;;;;;23.68;51.07;99237.91;125046;1093;64290;-81
2021/07/22 16:08:40;;;;;;;8.33;7.47;;;;;;;23.72;51.29;99236.53;125271;1093;64367;-78
2021/07/22 16:11:11;;;;;;;10.10;7.60;;;;;;;23.74;51.38;99231.77;125205;1093;64210;-78
2021/07/22 16:13:39;;;;;;;9.10;7.50;;;;;;;23.77;51.78;99227.83;125044;1093;64379;-78
2021/07/22 16:16:10;;;;;;;9.55;6.50;;;;;;;23.82;51.95;99230.86;125052;1093;64421;-77
2021/07/22 16:18:37;;;;;;;9.10;6.65;;;;;;;23.74;51.51;99233.64;125147;1093;64273;-76
2021/07/22 16:21:05;;;;;;;7.83;6.63;;;;;;;23.71;51.74;99229.38;125066;1093;64287;-77
2021/07/22 16:23:33;;;;;;;11.63;7.13;;;;;;;23.71;51.77;99225.81;125009;1092;64258;-77
2021/07/22 16:26:01;;;;;;;8.30;6.90;;;;;;;23.62;51.73;99223.16;125132;1093;64271;-78
2021/07/22 16:28:28;;;;;;;15.00;6.93;;;;;;;23.54;51.72;99225.94;125350;1093;64268;-78
2021/07/22 16:30:55;;;;;;;9.37;6.40;;;;;;;23.47;51.72;99226.84;125232;1092;64242;-76
2021/07/22 16:33:23;;;;;;;10.90;7.13;;;;;;;23.39;52.05;99234.02;125237;1093;64364;-76
2021/07/22 16:35:50;;;;;;;8.00;6.25;;;;;;;23.35;52.11;99219.06;125153;1093;64271;-77
2021/07/22 16:38:18;;;;;;;8.00;6.50;;;;;;;23.33;52.49;99220.27;125033;1093;64196;-77
2021/07/22 16:40:51;;;;;;;9.80;6.75;;;;;;;23.27;52.23;99232.71;125087;1092;64284;-77
2021/07/22 16:43:19;;;;;;;10.77;6.87;;;;;;;23.21;52.58;99222.56;125086;1093;64155;-76
2021/07/22 16:45:48;;;;;;;10.03;6.73;;;;;;;23.22;52.80;99227.83;125032;1093;64641;-78
2021/07/22 16:48:16;;;;;;;8.23;7.45;;;;;;;23.22;52.69;99222.39;125056;1092;64268;-76
2021/07/22 16:50:46;;;;;;;8.77;6.93;;;;;;;23.22;52.83;99213.36;124996;1093;64293;-75
2021/07/22 16:53:14;;;;;;;12.97;8.63;;;;;;;23.23;53.08;99215.08;124972;1093;64329;-75
2021/07/22 16:55:41;;;;;;;9.53;7.90;;;;;;;23.22;53.08;99224.24;125000;1093;64297;-76
2021/07/22 16:58:08;;;;;;;10.30;7.67;;;;;;;23.21;53.06;99223.41;125028;1093;64274;-76
2021/07/22 17:00:36;;;;;;;8.20;7.30;;;;;;;23.17;52.77;99213.92;125036;1093;64191;-76
2021/07/22 17:03:03;;;;;;;11.83;7.17;;;;;;;23.12;53.40;99204.61;125000;1092;64309;-76
2021/07/22 17:05:30;;;;;;;9.97;7.43;;;;;;;23.09;53.31;99210.38;125065;1093;64425;-76
2021/07/22 17:07:57;;;;;;;9.05;6.80;;;;;;;23.06;53.49;99210.73;125015;1093;64376;-76
2021/07/22 17:10:25;;;;;;;8.93;7.53;;;;;;;22.97;53.69;99208.06;125033;1093;64328;-76
2021/07/22 17:12:52;;;;;;;9.77;7.40;;;;;;;22.96;54.07;99210.91;125029;1093;64290;-76
2021/07/22 17:15:19;;;;;;;10.20;7.47;;;;;;;23.03;53.75;99209.22;125028;1092;64281;-76
2021/07/22 17:17:47;;;;;;;9.03;6.70;;;;;;;23.08;53.63;99204.10;125012;1092;64398;-76
2021/07/22 17:20:15;;;;;;;8.80;6.73;;;;;;;23.06;53.83;99214.30;125034;1092;64239;-76
2021/07/22 17:22:46;;;;;;;10.40;6.87;;;;;;;23.09;53.48;99205.81;125027;1093;64443;-76
2021/07/22 17:25:14;;;;;;;10.33;7.70;;;;;;;23.21;53.58;99204.37;125004;1093;65161;-76
2021/07/22 17:27:42;;;;;;;10.45;7.45;;;;;;;23.41;53.54;99199.33;125003;1093;64185;-76
2021/07/22 17:30:13;;;;;;;10.20;7.07;;;;;;;23.57;53.35;99206.53;125054;1093;64373;-77
2021/07/22 17:32:41;;;;;;;8.10;6.67;;;;;;;23.68;53.12;99202.53;124979;1093;64326;-75
2021/07/22 17:35:12;;;;;;;8.53;6.90;;;;;;;23.65;53.02;99206.46;124987;1092;64951;-75
2021/07/22 17:37:39;;;;;;;7.17;6.13;;;;;;;23.47;52.48;99199.63;125008;1093;64618;-76
2021/07/22 17:40:07;;;;;;;6.97;6.23;;;;;;;23.20;52.77;99196.41;125021;1093;64343;-76
2021/07/22 17:42:35;;;;;;;8.47;6.33;;;;;;;23.04;52.81;99200.06;124966;1093;64251;-75
2021/07/22 17:45:03;;;;;;;8.27;6.60;;;;;;;22.90;52.77;99198.88;125040;1092;64210;-75
2021/07/22 17:47:30;;;;;;;6.87;6.00;;;;;;;22.83;52.87;99205.20;125101;1092;64290;-76
2021/07/22 17:49:57;;;;;;;8.63;6.93;;;;;;;22.67;53.37;99203.39;125026;1093;64297;-76
2021/07/22 17:52:24;;;;;;;8.77;6.60;;;;;;;22.62;53.53;99206.66;125037;1093;64644;-76
2021/07/22 17:54:51;;;;;;;8.50;6.43;;;;;;;22.57;53.62;99203.62;125035;1092;64287;-77
2021/07/22 17:57:19;;;;;;;7.23;6.53;;;;;;;22.50;53.61;99202.61;125007;1093;64401;-77
2021/07/22 17:59:46;;;;;;;7.23;6.53;;;;;;;22.42;53.96;99199.92;125027;1093;64294;-77
2021/07/22 18:02:13;;;;;;;10.73;7.07;;;;;;;22.30;54.37;99207.56;125031;1093;64287;-75
2021/07/22 18:04:40;;;;;;;8.17;6.40;;;;;;;22.26;54.51;99215.22;125014;1092;64245;-75
2021/07/22 18:07:07;;;;;;;11.53;7.40;;;;;;;22.20;54.92;99205.06;125056;1093;64412;-76